createdAt,value
2019-01-31T00:00:35.515Z,85.89
2019-01-31T00:03:40.544Z,86.10
2019-01-31T00:06:48.638Z,86.49
2019-01-31T00:09:40.347Z,86.39
2019-01-31T00:12:44.914Z,86.45
2019-01-31T00:15:53.904Z,85.38
2019-01-31T00:18:55.771Z,85.95
2019-01-31T00:22:01.967Z,86.14
2019-01-31T00:24:39.821Z,85.98
2019-01-31T00:27:52.642Z,86.35
2019-01-31T00:30:35.974Z,86.38
2019-01-31T00:33:46.854Z,86.31
2019-01-31T00:36:40.617Z,86.31
2019-01-31T00:39:40.946Z,86.32
2019-01-31T00:42:33.218Z,86.66
2019-01-31T00:45:48.841Z,86.93
2019-01-31T00:48:39.901Z,86.24
2019-01-31T00:51:33.563Z,86.42
2019-01-31T00:54:20.286Z,85.25
2019-01-31T00:57:19.024Z,86.00
2019-01-31T01:00:26.459Z,86.49
2019-01-31T01:03:46.198Z,86.32
2019-01-31T01:06:25.558Z,86.53
2019-01-31T01:09:44.935Z,86.10
2019-01-31T01:12:51.228Z,86.39
2019-01-31T01:16:04.638Z,86.37
2019-01-31T01:18:42.338Z,86.26
2019-01-31T01:21:42.322Z,86.33
2019-01-31T01:24:33.586Z,86.43
2019-01-31T01:27:32.504Z,86.45
2019-01-31T01:30:49.462Z,85.25
2019-01-31T01:33:47.505Z,86.06
2019-01-31T01:36:40.842Z,86.41
2019-01-31T01:39:51.235Z,86.44
2019-01-31T01:42:43.833Z,86.27
2019-01-31T01:45:59.420Z,87.09
2019-01-31T01:48:40.716Z,86.88
2019-01-31T01:51:34.495Z,85.54
2019-01-31T01:54:48.325Z,84.70
2019-01-31T01:58:00.679Z,85.71
2019-01-31T02:01:23.397Z,86.03
2019-01-31T02:04:22.892Z,86.19
2019-01-31T02:07:23.465Z,86.12
2019-01-31T02:10:55.669Z,85.61
2019-01-31T02:13:51.573Z,85.54
2019-01-31T02:16:44.391Z,85.89
2019-01-31T02:19:58.045Z,86.62
2019-01-31T02:22:46.280Z,87.00
2019-01-31T02:25:25.900Z,86.86
2019-01-31T02:28:38.255Z,86.97
2019-01-31T02:31:41.323Z,86.56
2019-01-31T02:34:57.214Z,86.81
2019-01-31T02:37:58.397Z,84.85
2019-01-31T02:40:45.295Z,83.98
2019-01-31T02:43:43.025Z,85.21
2019-01-31T02:47:07.832Z,85.19
2019-01-31T02:50:26.673Z,85.52
2019-01-31T02:53:21.425Z,86.23
2019-01-31T02:56:14.261Z,86.17
2019-01-31T02:59:04.460Z,85.92
2019-01-31T03:02:10.900Z,86.30
2019-01-31T03:05:10.830Z,86.14
2019-01-31T03:08:26.703Z,84.87
2019-01-31T03:11:17.845Z,83.88
2019-01-31T03:14:14.294Z,84.81
2019-01-31T03:17:15.671Z,85.87
2019-01-31T03:20:24.062Z,85.90
2019-01-31T03:23:29.257Z,85.89
2019-01-31T03:26:36.153Z,85.86
2019-01-31T03:29:59.965Z,86.38
2019-01-31T03:32:46.041Z,84.07
2019-01-31T03:36:05.739Z,85.36
2019-01-31T03:38:52.772Z,85.49
2019-01-31T03:42:03.220Z,85.82
2019-01-31T03:45:05.665Z,85.93
2019-01-31T03:48:15.084Z,86.17
2019-01-31T03:50:59.484Z,86.22
2019-01-31T03:54:05.952Z,86.14
2019-01-31T03:57:08.027Z,85.86
2019-01-31T03:59:55.437Z,86.10
2019-01-31T04:02:57.031Z,86.39
2019-01-31T04:05:53.467Z,86.39
2019-01-31T04:08:22.312Z,85.99
2019-01-31T04:10:51.171Z,85.86
2019-01-31T04:13:20.041Z,86.08
2019-01-31T04:15:48.900Z,86.42
2019-01-31T04:18:17.769Z,86.30
2019-01-31T04:20:46.641Z,86.59
2019-01-31T04:23:15.517Z,84.62
2019-01-31T04:25:44.396Z,85.09
2019-01-31T04:28:13.282Z,85.26
2019-01-31T04:30:42.145Z,85.09
2019-01-31T04:33:11.024Z,84.95
2019-01-31T04:35:39.915Z,84.79
2019-01-31T04:38:08.807Z,84.68
2019-01-31T04:40:37.718Z,84.86
2019-01-31T04:43:06.611Z,84.56
2019-01-31T04:45:35.496Z,85.09
2019-01-31T04:48:04.371Z,85.05
2019-01-31T04:50:33.286Z,85.64
2019-01-31T04:53:02.174Z,85.71
2019-01-31T04:55:31.035Z,85.19
2019-01-31T04:57:59.924Z,85.03
2019-01-31T05:00:28.805Z,85.01
2019-01-31T05:02:57.652Z,85.73
2019-01-31T05:05:26.525Z,85.19
2019-01-31T05:07:55.411Z,85.50
2019-01-31T05:10:24.274Z,85.71
2019-01-31T05:12:53.214Z,85.65
2019-01-31T05:15:22.067Z,83.87
2019-01-31T05:17:50.939Z,84.84
2019-01-31T05:20:19.823Z,84.86
2019-01-31T05:22:48.669Z,84.93
2019-01-31T05:25:17.555Z,85.44
2019-01-31T05:27:46.660Z,85.44
2019-01-31T05:30:16.015Z,85.13
2019-01-31T05:32:44.919Z,85.00
2019-01-31T05:35:13.824Z,83.52
2019-01-31T05:37:42.718Z,82.46
2019-01-31T05:40:13.355Z,83.64
2019-01-31T05:42:42.246Z,83.80
2019-01-31T05:45:12.937Z,84.37
2019-01-31T05:47:41.794Z,84.75
2019-01-31T05:50:13.097Z,84.48
2019-01-31T05:52:42.005Z,85.21
2019-01-31T05:55:10.913Z,82.61
2019-01-31T05:57:39.805Z,81.63
2019-01-31T06:00:14.493Z,83.36
2019-01-31T06:02:43.391Z,84.09
2019-01-31T06:05:12.277Z,84.28
2019-01-31T06:07:41.169Z,84.20
2019-01-31T06:10:10.317Z,84.03
2019-01-31T06:12:39.159Z,83.77
2019-01-31T06:15:10.925Z,84.58
2019-01-31T06:17:39.816Z,84.54
2019-01-31T06:20:10.218Z,85.13
2019-01-31T06:22:39.113Z,84.97
2019-01-31T06:25:08.003Z,85.31
2019-01-31T06:27:36.894Z,84.71
2019-01-31T06:30:06.424Z,85.66
2019-01-31T06:32:35.290Z,85.54
2019-01-31T06:35:04.718Z,85.75
2019-01-31T06:37:33.602Z,83.63
2019-01-31T06:40:02.482Z,84.50
2019-01-31T06:42:31.428Z,84.62
2019-01-31T06:45:00.314Z,83.32
2019-01-31T06:47:29.165Z,84.14
2019-01-31T06:49:58.033Z,84.57
2019-01-31T06:52:26.929Z,84.26
2019-01-31T06:54:55.826Z,84.63
2019-01-31T06:57:24.685Z,84.49
2019-01-31T06:59:53.644Z,84.49
2019-01-31T07:02:22.499Z,84.51
2019-01-31T07:04:51.404Z,84.28
2019-01-31T07:07:20.287Z,84.25
2019-01-31T07:09:49.190Z,83.95
2019-01-31T07:12:18.083Z,84.60
2019-01-31T07:14:46.944Z,84.47
2019-01-31T07:17:18.330Z,84.76
2019-01-31T07:19:44.746Z,82.89
2019-01-31T07:22:13.628Z,84.02
2019-01-31T07:24:42.519Z,84.69
2019-01-31T07:27:11.406Z,84.98
2019-01-31T07:29:40.276Z,85.09
2019-01-31T07:32:09.211Z,83.41
2019-01-31T07:34:38.079Z,84.28
2019-01-31T07:37:07.001Z,84.96
2019-01-31T07:39:35.939Z,84.88
2019-01-31T07:42:04.829Z,85.14
2019-01-31T07:44:33.724Z,84.38
2019-01-31T07:47:02.572Z,84.94
2019-01-31T07:49:31.454Z,84.82
2019-01-31T07:52:00.323Z,84.73
2019-01-31T07:54:29.219Z,84.85
2019-01-31T07:56:58.088Z,85.04
2019-01-31T07:59:26.967Z,84.57
2019-01-31T08:01:55.891Z,84.21
2019-01-31T08:04:24.771Z,83.76
2019-01-31T08:06:53.674Z,83.63
2019-01-31T08:09:22.541Z,82.58
2019-01-31T08:11:55.086Z,83.85
2019-01-31T08:14:21.780Z,84.35
2019-01-31T08:16:50.665Z,84.50
2019-01-31T08:19:19.551Z,84.87
2019-01-31T08:21:48.457Z,84.80
2019-01-31T08:24:17.343Z,84.78
2019-01-31T08:26:46.203Z,84.49
2019-01-31T08:29:15.093Z,84.67
2019-01-31T08:31:44.007Z,84.57
2019-01-31T08:34:12.884Z,84.00
2019-01-31T08:36:41.908Z,83.59
2019-01-31T08:39:10.694Z,84.06
2019-01-31T08:41:40.620Z,84.25
2019-01-31T08:44:09.484Z,84.13
2019-01-31T08:46:38.341Z,84.22
2019-01-31T08:49:07.442Z,84.15
2019-01-31T08:51:36.211Z,83.68
2019-01-31T08:54:05.267Z,82.68
2019-01-31T08:56:34.176Z,82.51
2019-01-31T08:59:03.077Z,82.98
2019-01-31T09:01:31.983Z,83.79
2019-01-31T09:04:00.885Z,84.27
2019-01-31T09:06:29.762Z,83.78
2019-01-31T09:08:58.618Z,84.04
2019-01-31T09:11:27.486Z,83.96
2019-01-31T09:13:56.371Z,83.89
2019-01-31T09:16:25.229Z,83.13
2019-01-31T09:18:54.105Z,83.29
2019-01-31T09:21:35.124Z,82.73
2019-01-31T09:24:26.568Z,82.14
2019-01-31T09:27:34.274Z,80.84
2019-01-31T09:30:39.399Z,82.53
2019-01-31T09:33:52.004Z,83.29
2019-01-31T09:37:02.791Z,83.27
2019-01-31T09:40:09.637Z,81.03
2019-01-31T09:43:10.012Z,82.69
2019-01-31T09:46:26.458Z,81.90
2019-01-31T09:49:39.476Z,81.76
2019-01-31T09:52:49.784Z,82.40
2019-01-31T09:55:43.562Z,82.15
2019-01-31T09:58:47.372Z,81.49
2019-01-31T10:01:56.578Z,82.75
2019-01-31T10:04:49.969Z,82.89
2019-01-31T10:07:50.870Z,82.95
2019-01-31T10:11:00.884Z,82.64
2019-01-31T10:13:58.538Z,82.69
2019-01-31T10:16:36.216Z,83.17
2019-01-31T10:19:42.901Z,82.90
2019-01-31T10:22:36.778Z,82.77
2019-01-31T10:25:43.447Z,80.30
2019-01-31T10:28:54.348Z,81.76
2019-01-31T10:31:46.783Z,81.77
2019-01-31T10:34:51.436Z,79.09
2019-01-31T10:37:37.688Z,78.01
2019-01-31T10:40:38.670Z,79.44
2019-01-31T10:43:42.375Z,76.34
2019-01-31T10:46:26.396Z,78.31
2019-01-31T10:49:37.613Z,78.49
2019-01-31T10:52:44.487Z,78.20
2019-01-31T10:55:49.309Z,77.56
2019-01-31T10:58:42.877Z,77.41
2019-01-31T11:01:53.461Z,77.17
2019-01-31T11:04:47.955Z,76.60
2019-01-31T11:07:42.415Z,78.25
2019-01-31T11:10:39.222Z,77.83
2019-01-31T11:13:46.629Z,78.25
2019-01-31T11:16:29.718Z,77.48
2019-01-31T11:19:52.364Z,78.01
2019-01-31T11:23:08.020Z,77.34
2019-01-31T11:26:09.909Z,76.89
2019-01-31T11:29:09.656Z,76.76
2019-01-31T11:32:47.698Z,77.04
2019-01-31T11:35:58.259Z,76.79
2019-01-31T11:39:21.658Z,77.29
2019-01-31T11:42:26.292Z,77.07
2019-01-31T11:45:31.102Z,77.17
2019-01-31T11:48:28.208Z,77.16
2019-01-31T11:51:48.480Z,77.55
2019-01-31T11:54:26.828Z,77.72
2019-01-31T11:57:32.611Z,77.29
2019-01-31T12:00:01.536Z,76.39
2019-01-31T12:02:30.394Z,77.03
2019-01-31T12:04:59.273Z,76.75
2019-01-31T12:07:28.144Z,77.20
2019-01-31T12:09:56.990Z,77.83
2019-01-31T12:12:25.892Z,77.66
2019-01-31T12:14:54.764Z,76.95
2019-01-31T12:17:23.667Z,77.42
2019-01-31T12:19:52.579Z,75.57
2019-01-31T12:22:21.445Z,76.44
2019-01-31T12:24:50.297Z,76.15
2019-01-31T12:27:19.193Z,77.06
2019-01-31T12:29:48.083Z,76.20
2019-01-31T12:32:16.943Z,76.11
2019-01-31T12:34:45.860Z,75.62
2019-01-31T12:37:14.660Z,75.58
2019-01-31T12:39:43.540Z,76.29
2019-01-31T12:42:12.387Z,76.34
2019-01-31T12:44:41.285Z,76.45
2019-01-31T12:47:10.163Z,76.23
2019-01-31T12:49:39.037Z,76.69
2019-01-31T12:52:07.917Z,76.66
2019-01-31T12:54:36.841Z,76.48
2019-01-31T12:57:05.812Z,76.32
2019-01-31T12:59:34.691Z,76.56
2019-01-31T13:02:03.602Z,76.25
2019-01-31T13:04:33.410Z,76.76
2019-01-31T19:06:03.396Z,81.22
2019-01-31T19:08:32.407Z,80.93
2019-01-31T19:11:01.551Z,80.60
2019-01-31T19:13:30.694Z,80.90
2019-01-31T19:16:05.450Z,80.61
2019-01-31T19:18:28.958Z,81.11
2019-01-31T19:20:58.114Z,80.88
2019-01-31T19:23:27.275Z,80.65
2019-01-31T19:25:56.391Z,80.59
2019-01-31T19:28:25.444Z,80.71
2019-01-31T19:30:54.565Z,80.73
2019-01-31T19:33:23.706Z,80.54
2019-01-31T19:35:52.775Z,81.23
2019-01-31T19:38:24.123Z,80.73
2019-01-31T19:40:53.248Z,80.98
2019-01-31T19:43:22.359Z,81.00
2019-01-31T19:45:52.044Z,81.03
2019-01-31T19:48:21.128Z,81.08
2019-01-31T19:50:50.210Z,80.56
2019-01-31T19:53:19.357Z,80.33
2019-01-31T19:55:51.291Z,80.21
2019-01-31T19:58:20.360Z,80.59
2019-01-31T20:00:49.423Z,80.69
2019-01-31T20:03:18.435Z,80.44
2019-01-31T20:05:47.502Z,80.95
2019-01-31T20:08:22.069Z,81.02
2019-01-31T20:10:51.221Z,81.56
2019-01-31T20:13:20.301Z,81.68
2019-01-31T20:15:49.322Z,81.23
2019-01-31T20:18:18.441Z,80.50
2019-01-31T20:20:47.497Z,80.46
2019-01-31T20:23:19.323Z,80.58
2019-01-31T20:25:48.330Z,80.76
2019-01-31T20:28:17.337Z,81.32
2019-01-31T20:30:46.353Z,80.76
2019-01-31T20:33:15.437Z,80.64
2019-01-31T20:35:44.562Z,80.79
2019-01-31T20:38:13.618Z,81.15
2019-01-31T20:40:43.262Z,81.12
2019-01-31T20:43:12.383Z,81.12
2019-01-31T20:45:41.593Z,80.72
2019-01-31T20:48:10.623Z,81.31
2019-01-31T20:50:41.186Z,81.50
2019-01-31T20:53:10.394Z,81.66
2019-01-31T20:55:39.598Z,81.66
2019-01-31T20:58:08.853Z,81.65
2019-01-31T21:00:40.275Z,81.18
2019-01-31T21:03:09.512Z,81.44
2019-01-31T21:05:42.051Z,81.03
2019-01-31T21:08:12.200Z,80.97
2019-01-31T21:10:44.151Z,80.97
2019-01-31T21:13:13.335Z,81.23
2019-01-31T21:15:42.549Z,81.51
2019-01-31T21:18:11.509Z,81.76
2019-01-31T21:20:40.677Z,81.53
2019-01-31T21:23:10.108Z,80.46
2019-01-31T21:25:39.209Z,81.33
2019-01-31T21:28:08.308Z,81.38
2019-01-31T21:30:41.482Z,81.16
2019-01-31T21:33:10.562Z,80.92
2019-01-31T21:35:39.740Z,81.03
2019-01-31T21:38:08.883Z,81.24
2019-01-31T21:40:40.711Z,81.23
2019-01-31T21:43:09.900Z,81.70
2019-01-31T21:45:39.018Z,81.91
2019-01-31T21:48:09.450Z,81.64
2019-01-31T21:50:38.529Z,81.75
2019-01-31T21:53:07.602Z,81.85
2019-01-31T21:55:36.763Z,82.38
2019-01-31T21:58:06.290Z,82.26
2019-01-31T22:00:35.413Z,81.86
2019-01-31T22:03:04.652Z,82.41
2019-01-31T22:05:33.735Z,82.07
2019-01-31T22:08:02.847Z,82.58
2019-01-31T22:10:31.955Z,82.35
2019-01-31T22:13:02.976Z,82.87
2019-01-31T22:15:31.177Z,82.83
2019-01-31T22:18:00.795Z,82.80
2019-01-31T22:20:29.734Z,83.04
2019-01-31T22:22:58.863Z,83.08
2019-01-31T22:25:27.986Z,83.21
2019-01-31T22:27:57.134Z,83.06
2019-01-31T22:30:28.670Z,82.74
2019-01-31T22:32:57.717Z,83.02
2019-01-31T22:35:26.754Z,82.55
2019-01-31T22:37:55.895Z,83.36
2019-01-31T22:40:25.015Z,83.48
2019-01-31T22:42:54.052Z,83.19
2019-01-31T22:45:23.251Z,83.42
2019-01-31T22:47:55.461Z,83.30
2019-01-31T22:50:24.633Z,83.28
2019-01-31T22:52:53.730Z,83.00
2019-01-31T22:55:24.034Z,83.04
2019-01-31T22:57:53.149Z,83.03
2019-01-31T23:00:26.913Z,83.13
2019-01-31T23:02:56.062Z,83.05
2019-01-31T23:05:25.263Z,82.41
2019-01-31T23:07:54.448Z,82.70
2019-01-31T23:10:23.836Z,82.38
2019-01-31T23:12:53.032Z,82.36
2019-01-31T23:15:22.077Z,81.90
2019-01-31T23:17:51.186Z,81.94
2019-01-31T23:20:20.394Z,81.74
2019-01-31T23:22:49.423Z,81.75
2019-01-31T23:25:18.556Z,81.65
2019-01-31T23:27:50.685Z,81.61
2019-01-31T23:30:19.868Z,81.33
2019-01-31T23:32:48.857Z,81.45
2019-01-31T23:35:18.118Z,81.44
2019-01-31T23:37:47.116Z,82.01
2019-01-31T23:40:19.094Z,81.97
2019-01-31T23:42:48.214Z,82.69
2019-01-31T23:45:17.384Z,82.64
2019-01-31T23:47:49.036Z,82.37
2019-01-31T23:50:15.534Z,82.23
2019-01-31T23:52:44.617Z,82.45
2019-01-31T23:55:13.768Z,82.13
2019-01-31T23:57:42.904Z,82.25
